sensor_id;sensor_type;location;lat;lon;timestamp;temperature;humidity
70706;DHT22;59320;52.316;10.870;2023-09-07T00:01:21;23.20;99.90
70706;DHT22;59320;52.316;10.870;2023-09-07T00:03:49;23.10;99.90
70706;DHT22;59320;52.316;10.870;2023-09-07T00:06:16;23.20;99.90
70706;DHT22;59320;52.316;10.870;2023-09-07T00:08:43;23.10;99.90
70706;DHT22;59320;52.316;10.870;2023-09-07T00:11:12;23.10;99.90
70706;DHT22;59320;52.316;10.870;2023-09-07T00:13:39;23.10;99.90
70706;DHT22;59320;52.316;10.870;2023-09-07T00:16:06;23.10;99.90
70706;DHT22;59320;52.316;10.870;2023-09-07T00:18:34;23.10;99.90
70706;DHT22;59320;52.316;10.870;2023-09-07T00:21:02;23.10;99.90
70706;DHT22;59320;52.316;10.870;2023-09-07T00:23:29;23.10;99.90
70706;DHT22;59320;52.316;10.870;2023-09-07T00:25:56;23.10;99.90
70706;DHT22;59320;52.316;10.870;2023-09-07T00:28:25;23.10;99.90
70706;DHT22;59320;52.316;10.870;2023-09-07T00:30:52;23.10;99.90
70706;DHT22;59320;52.316;10.870;2023-09-07T00:33:20;23.00;99.90
70706;DHT22;59320;52.316;10.870;2023-09-07T00:35:47;23.00;99.90
70706;DHT22;59320;52.316;10.870;2023-09-07T00:38:14;23.10;99.90
70706;DHT22;59320;52.316;10.870;2023-09-07T00:40:43;23.10;99.90
70706;DHT22;59320;52.316;10.870;2023-09-07T00:43:11;23.00;99.90
70706;DHT22;59320;52.316;10.870;2023-09-07T00:45:39;23.10;99.90
70706;DHT22;59320;52.316;10.870;2023-09-07T00:48:07;23.00;99.90
70706;DHT22;59320;52.316;10.870;2023-09-07T00:50:35;23.00;99.90
70706;DHT22;59320;52.316;10.870;2023-09-07T00:53:03;23.00;99.90
70706;DHT22;59320;52.316;10.870;2023-09-07T00:55:33;23.00;99.90
70706;DHT22;59320;52.316;10.870;2023-09-07T00:58:01;23.00;99.90
70706;DHT22;59320;52.316;10.870;2023-09-07T01:00:29;23.00;99.90
70706;DHT22;59320;52.316;10.870;2023-09-07T01:02:58;23.00;99.90
70706;DHT22;59320;52.316;10.870;2023-09-07T01:05:32;23.00;99.90
70706;DHT22;59320;52.316;10.870;2023-09-07T01:08:07;23.00;99.90
70706;DHT22;59320;52.316;10.870;2023-09-07T01:10:37;23.00;99.90
70706;DHT22;59320;52.316;10.870;2023-09-07T01:13:04;22.90;99.90
70706;DHT22;59320;52.316;10.870;2023-09-07T01:15:31;23.00;99.90
70706;DHT22;59320;52.316;10.870;2023-09-07T01:18:00;22.90;99.90
70706;DHT22;59320;52.316;10.870;2023-09-07T01:20:29;22.90;99.90
70706;DHT22;59320;52.316;10.870;2023-09-07T01:22:58;22.90;99.90
70706;DHT22;59320;52.316;10.870;2023-09-07T01:25:26;22.90;99.90
70706;DHT22;59320;52.316;10.870;2023-09-07T01:27:54;22.90;99.90
70706;DHT22;59320;52.316;10.870;2023-09-07T01:30:21;22.90;99.90
70706;DHT22;59320;52.316;10.870;2023-09-07T01:32:49;22.90;99.90
70706;DHT22;59320;52.316;10.870;2023-09-07T01:35:16;22.90;99.90
70706;DHT22;59320;52.316;10.870;2023-09-07T01:37:47;22.90;99.90
70706;DHT22;59320;52.316;10.870;2023-09-07T01:40:16;22.90;99.90
70706;DHT22;59320;52.316;10.870;2023-09-07T01:42:43;22.80;99.90
70706;DHT22;59320;52.316;10.870;2023-09-07T01:45:10;22.90;99.90
70706;DHT22;59320;52.316;10.870;2023-09-07T01:47:37;22.80;99.90
70706;DHT22;59320;52.316;10.870;2023-09-07T01:50:05;22.80;99.90
70706;DHT22;59320;52.316;10.870;2023-09-07T01:55:30;22.80;99.90
70706;DHT22;59320;52.316;10.870;2023-09-07T01:57:58;22.80;99.90
70706;DHT22;59320;52.316;10.870;2023-09-07T02:00:26;22.80;99.90
70706;DHT22;59320;52.316;10.870;2023-09-07T02:02:53;22.80;99.90
70706;DHT22;59320;52.316;10.870;2023-09-07T02:05:20;22.80;99.90
70706;DHT22;59320;52.316;10.870;2023-09-07T02:07:47;22.80;99.90
70706;DHT22;59320;52.316;10.870;2023-09-07T02:10:16;22.80;99.90
70706;DHT22;59320;52.316;10.870;2023-09-07T02:12:45;22.80;99.90
70706;DHT22;59320;52.316;10.870;2023-09-07T02:15:12;22.80;99.90
70706;DHT22;59320;52.316;10.870;2023-09-07T02:17:40;22.80;99.90
70706;DHT22;59320;52.316;10.870;2023-09-07T02:20:14;22.70;99.90
70706;DHT22;59320;52.316;10.870;2023-09-07T02:22:41;22.70;99.90
70706;DHT22;59320;52.316;10.870;2023-09-07T02:25:08;22.80;99.90
70706;DHT22;59320;52.316;10.870;2023-09-07T02:27:35;22.70;99.90
70706;DHT22;59320;52.316;10.870;2023-09-07T02:30:05;22.70;99.90
70706;DHT22;59320;52.316;10.870;2023-09-07T02:32:33;22.70;99.90
70706;DHT22;59320;52.316;10.870;2023-09-07T02:35:00;22.70;99.90
70706;DHT22;59320;52.316;10.870;2023-09-07T02:37:27;22.70;99.90
70706;DHT22;59320;52.316;10.870;2023-09-07T02:39:54;22.70;99.90
70706;DHT22;59320;52.316;10.870;2023-09-07T02:42:21;22.70;99.90
70706;DHT22;59320;52.316;10.870;2023-09-07T02:44:50;22.70;99.90
70706;DHT22;59320;52.316;10.870;2023-09-07T02:47:19;22.60;99.90
70706;DHT22;59320;52.316;10.870;2023-09-07T02:49:47;22.60;99.90
70706;DHT22;59320;52.316;10.870;2023-09-07T02:52:14;22.60;99.90
70706;DHT22;59320;52.316;10.870;2023-09-07T02:54:42;22.60;99.90
70706;DHT22;59320;52.316;10.870;2023-09-07T02:57:09;22.60;99.90
70706;DHT22;59320;52.316;10.870;2023-09-07T02:59:36;22.60;99.90
70706;DHT22;59320;52.316;10.870;2023-09-07T03:02:03;22.60;99.90
70706;DHT22;59320;52.316;10.870;2023-09-07T03:04:33;22.60;99.90
70706;DHT22;59320;52.316;10.870;2023-09-07T03:07:00;22.60;99.90
70706;DHT22;59320;52.316;10.870;2023-09-07T03:09:28;22.60;99.90
70706;DHT22;59320;52.316;10.870;2023-09-07T03:11:55;22.60;99.90
70706;DHT22;59320;52.316;10.870;2023-09-07T03:14:22;22.60;99.90
70706;DHT22;59320;52.316;10.870;2023-09-07T03:16:50;22.60;99.90
70706;DHT22;59320;52.316;10.870;2023-09-07T03:19:18;22.50;99.90
70706;DHT22;59320;52.316;10.870;2023-09-07T03:21:46;22.60;99.90
70706;DHT22;59320;52.316;10.870;2023-09-07T03:24:13;22.60;99.90
70706;DHT22;59320;52.316;10.870;2023-09-07T03:26:42;22.50;99.90
70706;DHT22;59320;52.316;10.870;2023-09-07T03:29:09;22.50;99.90
70706;DHT22;59320;52.316;10.870;2023-09-07T03:31:37;22.50;99.90
70706;DHT22;59320;52.316;10.870;2023-09-07T03:34:04;22.50;99.90
70706;DHT22;59320;52.316;10.870;2023-09-07T03:36:33;22.50;99.90
70706;DHT22;59320;52.316;10.870;2023-09-07T03:39:01;22.50;99.90
70706;DHT22;59320;52.316;10.870;2023-09-07T03:41:29;22.50;99.90
70706;DHT22;59320;52.316;10.870;2023-09-07T03:43:57;22.50;99.90
70706;DHT22;59320;52.316;10.870;2023-09-07T03:46:25;22.50;99.90
70706;DHT22;59320;52.316;10.870;2023-09-07T03:48:53;22.50;99.90
70706;DHT22;59320;52.316;10.870;2023-09-07T03:51:20;22.50;99.90
70706;DHT22;59320;52.316;10.870;2023-09-07T03:53:47;22.50;99.90
70706;DHT22;59320;52.316;10.870;2023-09-07T03:56:15;22.50;99.90
70706;DHT22;59320;52.316;10.870;2023-09-07T03:58:43;22.50;99.90
70706;DHT22;59320;52.316;10.870;2023-09-07T04:01:10;22.50;99.90
70706;DHT22;59320;52.316;10.870;2023-09-07T04:03:37;22.40;99.90
70706;DHT22;59320;52.316;10.870;2023-09-07T04:06:06;22.40;99.90
70706;DHT22;59320;52.316;10.870;2023-09-07T04:08:33;22.40;99.90
70706;DHT22;59320;52.316;10.870;2023-09-07T04:11:03;22.40;99.90
70706;DHT22;59320;52.316;10.870;2023-09-07T04:13:32;22.40;99.90
70706;DHT22;59320;52.316;10.870;2023-09-07T04:15:59;22.40;99.90
70706;DHT22;59320;52.316;10.870;2023-09-07T04:18:27;22.40;99.90
70706;DHT22;59320;52.316;10.870;2023-09-07T04:21:04;22.40;99.90
70706;DHT22;59320;52.316;10.870;2023-09-07T04:23:32;22.40;99.90
70706;DHT22;59320;52.316;10.870;2023-09-07T04:26:06;22.40;99.90
70706;DHT22;59320;52.316;10.870;2023-09-07T04:28:36;22.40;99.90
70706;DHT22;59320;52.316;10.870;2023-09-07T04:31:04;22.40;99.90
70706;DHT22;59320;52.316;10.870;2023-09-07T04:33:32;22.30;99.90
70706;DHT22;59320;52.316;10.870;2023-09-07T04:36:07;22.30;99.90
70706;DHT22;59320;52.316;10.870;2023-09-07T04:38:35;22.30;99.90
70706;DHT22;59320;52.316;10.870;2023-09-07T04:41:06;22.30;99.90
70706;DHT22;59320;52.316;10.870;2023-09-07T04:43:35;22.30;99.90
70706;DHT22;59320;52.316;10.870;2023-09-07T04:46:03;22.30;99.90
70706;DHT22;59320;52.316;10.870;2023-09-07T04:48:30;22.30;99.90
70706;DHT22;59320;52.316;10.870;2023-09-07T04:50:58;22.30;99.90
70706;DHT22;59320;52.316;10.870;2023-09-07T04:53:27;22.30;99.90
70706;DHT22;59320;52.316;10.870;2023-09-07T04:55:55;22.30;99.90
70706;DHT22;59320;52.316;10.870;2023-09-07T04:58:22;22.30;99.90
70706;DHT22;59320;52.316;10.870;2023-09-07T05:00:50;22.30;99.90
70706;DHT22;59320;52.316;10.870;2023-09-07T05:03:18;22.30;99.90
70706;DHT22;59320;52.316;10.870;2023-09-07T05:05:51;22.30;99.90
70706;DHT22;59320;52.316;10.870;2023-09-07T05:08:18;22.30;99.90
70706;DHT22;59320;52.316;10.870;2023-09-07T05:10:46;22.30;99.90
70706;DHT22;59320;52.316;10.870;2023-09-07T05:13:13;22.30;99.90
70706;DHT22;59320;52.316;10.870;2023-09-07T05:15:47;22.30;99.90
70706;DHT22;59320;52.316;10.870;2023-09-07T05:18:16;22.30;99.90
70706;DHT22;59320;52.316;10.870;2023-09-07T05:20:44;22.30;99.90
70706;DHT22;59320;52.316;10.870;2023-09-07T05:23:12;22.30;99.90
70706;DHT22;59320;52.316;10.870;2023-09-07T05:25:44;22.30;99.90
70706;DHT22;59320;52.316;10.870;2023-09-07T05:28:13;22.30;99.90
70706;DHT22;59320;52.316;10.870;2023-09-07T05:30:41;22.30;99.90
70706;DHT22;59320;52.316;10.870;2023-09-07T05:33:09;22.30;99.90
70706;DHT22;59320;52.316;10.870;2023-09-07T05:35:38;22.30;99.90
70706;DHT22;59320;52.316;10.870;2023-09-07T05:38:06;22.30;99.90
70706;DHT22;59320;52.316;10.870;2023-09-07T05:40:34;22.30;99.90
70706;DHT22;59320;52.316;10.870;2023-09-07T05:43:01;22.30;99.90
70706;DHT22;59320;52.316;10.870;2023-09-07T05:45:30;22.30;99.90
70706;DHT22;59320;52.316;10.870;2023-09-07T05:47:58;22.30;99.90
70706;DHT22;59320;52.316;10.870;2023-09-07T05:50:25;22.30;99.90
70706;DHT22;59320;52.316;10.870;2023-09-07T05:52:54;22.30;99.90
70706;DHT22;59320;52.316;10.870;2023-09-07T05:55:21;22.30;99.90
70706;DHT22;59320;52.316;10.870;2023-09-07T05:57:49;22.30;99.90
70706;DHT22;59320;52.316;10.870;2023-09-07T06:00:16;22.30;99.90
70706;DHT22;59320;52.316;10.870;2023-09-07T06:02:45;22.30;99.90
70706;DHT22;59320;52.316;10.870;2023-09-07T06:05:13;22.30;99.90
70706;DHT22;59320;52.316;10.870;2023-09-07T06:07:40;22.30;99.90
70706;DHT22;59320;52.316;10.870;2023-09-07T06:10:10;22.30;99.90
70706;DHT22;59320;52.316;10.870;2023-09-07T06:12:37;22.30;99.90
70706;DHT22;59320;52.316;10.870;2023-09-07T06:15:07;22.30;99.90
70706;DHT22;59320;52.316;10.870;2023-09-07T06:17:35;22.30;99.90
70706;DHT22;59320;52.316;10.870;2023-09-07T06:20:02;22.30;99.90
70706;DHT22;59320;52.316;10.870;2023-09-07T06:22:30;22.30;99.90
70706;DHT22;59320;52.316;10.870;2023-09-07T06:24:58;22.30;99.90
70706;DHT22;59320;52.316;10.870;2023-09-07T06:27:26;22.30;99.90
70706;DHT22;59320;52.316;10.870;2023-09-07T06:29:54;22.20;99.90
70706;DHT22;59320;52.316;10.870;2023-09-07T06:32:21;22.20;99.90
70706;DHT22;59320;52.316;10.870;2023-09-07T06:34:49;22.20;99.90
70706;DHT22;59320;52.316;10.870;2023-09-07T06:37:17;22.20;99.90
70706;DHT22;59320;52.316;10.870;2023-09-07T06:39:44;22.30;99.90
70706;DHT22;59320;52.316;10.870;2023-09-07T06:42:11;22.30;99.90
70706;DHT22;59320;52.316;10.870;2023-09-07T06:44:46;22.20;99.90
70706;DHT22;59320;52.316;10.870;2023-09-07T06:47:14;22.30;99.90
70706;DHT22;59320;52.316;10.870;2023-09-07T06:49:41;22.30;99.90
70706;DHT22;59320;52.316;10.870;2023-09-07T06:52:08;22.30;99.90
70706;DHT22;59320;52.316;10.870;2023-09-07T06:54:38;22.30;99.90
70706;DHT22;59320;52.316;10.870;2023-09-07T06:57:06;22.30;99.90
70706;DHT22;59320;52.316;10.870;2023-09-07T06:59:34;22.30;99.90
70706;DHT22;59320;52.316;10.870;2023-09-07T07:02:03;22.30;99.90
70706;DHT22;59320;52.316;10.870;2023-09-07T07:04:32;22.30;99.90
70706;DHT22;59320;52.316;10.870;2023-09-07T07:06:59;22.40;99.90
70706;DHT22;59320;52.316;10.870;2023-09-07T07:09:27;22.30;99.90
70706;DHT22;59320;52.316;10.870;2023-09-07T07:11:56;22.30;99.90
70706;DHT22;59320;52.316;10.870;2023-09-07T07:14:23;22.40;99.90
70706;DHT22;59320;52.316;10.870;2023-09-07T07:16:50;22.40;99.90
70706;DHT22;59320;52.316;10.870;2023-09-07T07:19:19;22.40;99.90
70706;DHT22;59320;52.316;10.870;2023-09-07T07:21:46;22.30;99.90
70706;DHT22;59320;52.316;10.870;2023-09-07T07:24:13;22.30;99.90
70706;DHT22;59320;52.316;10.870;2023-09-07T07:26:40;22.30;99.90
70706;DHT22;59320;52.316;10.870;2023-09-07T07:29:08;22.40;99.90
70706;DHT22;59320;52.316;10.870;2023-09-07T07:31:35;22.40;99.90
70706;DHT22;59320;52.316;10.870;2023-09-07T07:34:04;22.40;99.90
70706;DHT22;59320;52.316;10.870;2023-09-07T07:37:13;22.40;99.90
70706;DHT22;59320;52.316;10.870;2023-09-07T07:40:06;22.40;99.90
70706;DHT22;59320;52.316;10.870;2023-09-07T07:42:41;22.40;99.90
70706;DHT22;59320;52.316;10.870;2023-09-07T07:45:15;22.40;99.90
70706;DHT22;59320;52.316;10.870;2023-09-07T07:47:45;22.40;99.90
70706;DHT22;59320;52.316;10.870;2023-09-07T07:50:14;22.40;99.90
70706;DHT22;59320;52.316;10.870;2023-09-07T07:52:43;22.50;99.90
70706;DHT22;59320;52.316;10.870;2023-09-07T07:55:11;22.50;99.90
70706;DHT22;59320;52.316;10.870;2023-09-07T07:57:40;22.50;99.90
70706;DHT22;59320;52.316;10.870;2023-09-07T08:00:10;22.50;99.90
70706;DHT22;59320;52.316;10.870;2023-09-07T08:02:43;22.50;99.90
70706;DHT22;59320;52.316;10.870;2023-09-07T08:05:11;22.50;99.90
70706;DHT22;59320;52.316;10.870;2023-09-07T08:07:39;22.50;99.90
70706;DHT22;59320;52.316;10.870;2023-09-07T08:10:08;22.50;99.90
70706;DHT22;59320;52.316;10.870;2023-09-07T08:12:35;22.50;99.90
70706;DHT22;59320;52.316;10.870;2023-09-07T08:15:02;22.50;99.90
70706;DHT22;59320;52.316;10.870;2023-09-07T08:17:30;22.50;99.90
70706;DHT22;59320;52.316;10.870;2023-09-07T08:19:57;22.50;99.90
70706;DHT22;59320;52.316;10.870;2023-09-07T08:22:25;22.60;99.90
70706;DHT22;59320;52.316;10.870;2023-09-07T08:24:53;22.60;99.90
70706;DHT22;59320;52.316;10.870;2023-09-07T08:27:23;22.60;99.90
70706;DHT22;59320;52.316;10.870;2023-09-07T08:29:54;22.60;99.90
70706;DHT22;59320;52.316;10.870;2023-09-07T08:32:21;22.60;99.90
70706;DHT22;59320;52.316;10.870;2023-09-07T08:34:48;22.60;99.90
70706;DHT22;59320;52.316;10.870;2023-09-07T08:37:16;22.60;99.90
70706;DHT22;59320;52.316;10.870;2023-09-07T08:39:44;22.60;99.90
70706;DHT22;59320;52.316;10.870;2023-09-07T08:42:11;22.60;99.90
70706;DHT22;59320;52.316;10.870;2023-09-07T08:44:42;22.60;99.90
70706;DHT22;59320;52.316;10.870;2023-09-07T08:47:12;22.60;99.90
70706;DHT22;59320;52.316;10.870;2023-09-07T08:52:36;22.60;99.90
70706;DHT22;59320;52.316;10.870;2023-09-07T08:55:05;22.60;99.90
70706;DHT22;59320;52.316;10.870;2023-09-07T08:57:33;22.70;99.90
70706;DHT22;59320;52.316;10.870;2023-09-07T09:00:03;22.70;99.90
70706;DHT22;59320;52.316;10.870;2023-09-07T09:02:34;22.70;99.90
70706;DHT22;59320;52.316;10.870;2023-09-07T09:05:02;22.70;99.90
70706;DHT22;59320;52.316;10.870;2023-09-07T09:07:30;22.80;99.90
70706;DHT22;59320;52.316;10.870;2023-09-07T09:10:07;22.80;99.90
70706;DHT22;59320;52.316;10.870;2023-09-07T09:12:35;22.80;99.90
70706;DHT22;59320;52.316;10.870;2023-09-07T09:15:05;22.80;99.90
70706;DHT22;59320;52.316;10.870;2023-09-07T09:17:33;22.90;99.90
70706;DHT22;59320;52.316;10.870;2023-09-07T09:20:01;22.90;99.90
70706;DHT22;59320;52.316;10.870;2023-09-07T09:22:37;22.90;99.90
70706;DHT22;59320;52.316;10.870;2023-09-07T09:25:12;23.00;99.90
70706;DHT22;59320;52.316;10.870;2023-09-07T09:27:39;23.00;99.90
70706;DHT22;59320;52.316;10.870;2023-09-07T09:30:09;23.10;99.90
70706;DHT22;59320;52.316;10.870;2023-09-07T09:32:39;23.10;99.90
70706;DHT22;59320;52.316;10.870;2023-09-07T09:35:08;23.10;99.90
70706;DHT22;59320;52.316;10.870;2023-09-07T09:37:44;23.10;99.90
70706;DHT22;59320;52.316;10.870;2023-09-07T09:40:13;23.10;99.90
70706;DHT22;59320;52.316;10.870;2023-09-07T09:42:42;23.10;99.90
70706;DHT22;59320;52.316;10.870;2023-09-07T09:45:12;23.20;99.90
70706;DHT22;59320;52.316;10.870;2023-09-07T09:47:40;23.20;99.90
70706;DHT22;59320;52.316;10.870;2023-09-07T09:50:10;23.30;99.90
70706;DHT22;59320;52.316;10.870;2023-09-07T09:52:38;23.30;99.90
70706;DHT22;59320;52.316;10.870;2023-09-07T09:55:07;23.30;99.90
70706;DHT22;59320;52.316;10.870;2023-09-07T09:57:39;23.30;99.90
70706;DHT22;59320;52.316;10.870;2023-09-07T10:00:07;23.30;99.90
70706;DHT22;59320;52.316;10.870;2023-09-07T10:02:49;23.40;99.90
70706;DHT22;59320;52.316;10.870;2023-09-07T10:05:18;23.40;99.90
70706;DHT22;59320;52.316;10.870;2023-09-07T10:07:49;23.50;99.90
70706;DHT22;59320;52.316;10.870;2023-09-07T10:10:19;23.50;99.90
70706;DHT22;59320;52.316;10.870;2023-09-07T10:12:52;23.50;99.90
70706;DHT22;59320;52.316;10.870;2023-09-07T10:15:23;23.50;99.90
70706;DHT22;59320;52.316;10.870;2023-09-07T10:18:02;23.50;99.90
70706;DHT22;59320;52.316;10.870;2023-09-07T10:20:45;23.50;99.90
70706;DHT22;59320;52.316;10.870;2023-09-07T10:23:13;23.60;99.90
70706;DHT22;59320;52.316;10.870;2023-09-07T10:25:41;23.60;99.90
70706;DHT22;59320;52.316;10.870;2023-09-07T10:28:18;23.60;99.90
70706;DHT22;59320;52.316;10.870;2023-09-07T10:30:46;23.60;99.90
70706;DHT22;59320;52.316;10.870;2023-09-07T10:33:25;23.70;99.90
70706;DHT22;59320;52.316;10.870;2023-09-07T10:35:52;23.70;99.90
70706;DHT22;59320;52.316;10.870;2023-09-07T10:38:19;23.70;99.90
70706;DHT22;59320;52.316;10.870;2023-09-07T10:40:47;23.80;99.90
70706;DHT22;59320;52.316;10.870;2023-09-07T10:43:14;23.80;99.90
70706;DHT22;59320;52.316;10.870;2023-09-07T10:45:44;23.80;99.90
70706;DHT22;59320;52.316;10.870;2023-09-07T10:48:12;23.80;99.90
70706;DHT22;59320;52.316;10.870;2023-09-07T10:50:44;23.90;99.90
70706;DHT22;59320;52.316;10.870;2023-09-07T10:53:12;23.90;99.90
70706;DHT22;59320;52.316;10.870;2023-09-07T10:58:26;23.90;99.90
70706;DHT22;59320;52.316;10.870;2023-09-07T11:00:54;23.90;99.90
70706;DHT22;59320;52.316;10.870;2023-09-07T11:03:21;23.90;99.90
70706;DHT22;59320;52.316;10.870;2023-09-07T11:05:51;24.00;99.90
70706;DHT22;59320;52.316;10.870;2023-09-07T11:08:31;24.00;99.90
70706;DHT22;59320;52.316;10.870;2023-09-07T11:11:05;24.00;99.90
70706;DHT22;59320;52.316;10.870;2023-09-07T11:13:34;24.00;99.90
70706;DHT22;59320;52.316;10.870;2023-09-07T11:16:01;24.10;99.90
70706;DHT22;59320;52.316;10.870;2023-09-07T11:18:29;24.10;99.90
70706;DHT22;59320;52.316;10.870;2023-09-07T11:20:58;24.00;99.90
70706;DHT22;59320;52.316;10.870;2023-09-07T11:23:29;24.10;99.90
70706;DHT22;59320;52.316;10.870;2023-09-07T11:26:03;24.10;99.90
70706;DHT22;59320;52.316;10.870;2023-09-07T11:28:31;24.20;99.90
70706;DHT22;59320;52.316;10.870;2023-09-07T11:30:59;24.20;99.90
70706;DHT22;59320;52.316;10.870;2023-09-07T11:33:33;24.20;99.90
70706;DHT22;59320;52.316;10.870;2023-09-07T11:36:02;24.20;99.90
70706;DHT22;59320;52.316;10.870;2023-09-07T11:38:35;24.20;99.90
70706;DHT22;59320;52.316;10.870;2023-09-07T11:41:03;24.20;99.90
70706;DHT22;59320;52.316;10.870;2023-09-07T11:43:30;24.30;99.90
70706;DHT22;59320;52.316;10.870;2023-09-07T11:45:59;24.30;99.90
70706;DHT22;59320;52.316;10.870;2023-09-07T11:48:29;24.30;99.90
70706;DHT22;59320;52.316;10.870;2023-09-07T11:50:58;24.40;99.90
70706;DHT22;59320;52.316;10.870;2023-09-07T11:53:27;24.40;99.90
70706;DHT22;59320;52.316;10.870;2023-09-07T11:55:55;24.40;99.90
70706;DHT22;59320;52.316;10.870;2023-09-07T11:58:22;24.40;99.90
70706;DHT22;59320;52.316;10.870;2023-09-07T12:00:51;24.40;99.90
70706;DHT22;59320;52.316;10.870;2023-09-07T12:03:18;24.40;99.90
70706;DHT22;59320;52.316;10.870;2023-09-07T12:05:45;24.40;99.90
70706;DHT22;59320;52.316;10.870;2023-09-07T12:12:33;24.50;99.90
70706;DHT22;59320;52.316;10.870;2023-09-07T12:15:01;24.50;99.90
70706;DHT22;59320;52.316;10.870;2023-09-07T12:17:30;24.60;99.90
70706;DHT22;59320;52.316;10.870;2023-09-07T12:19:57;24.60;99.90
70706;DHT22;59320;52.316;10.870;2023-09-07T12:25:17;24.60;99.90
70706;DHT22;59320;52.316;10.870;2023-09-07T12:27:46;24.60;99.90
70706;DHT22;59320;52.316;10.870;2023-09-07T12:30:13;24.60;99.90
70706;DHT22;59320;52.316;10.870;2023-09-07T12:32:44;24.60;99.90
70706;DHT22;59320;52.316;10.870;2023-09-07T12:35:11;24.70;99.90
70706;DHT22;59320;52.316;10.870;2023-09-07T12:37:39;24.70;99.90
70706;DHT22;59320;52.316;10.870;2023-09-07T12:41:04;24.70;99.90
70706;DHT22;59320;52.316;10.870;2023-09-07T12:43:36;24.80;99.90
70706;DHT22;59320;52.316;10.870;2023-09-07T12:46:03;24.80;99.90
70706;DHT22;59320;52.316;10.870;2023-09-07T12:48:30;24.80;99.90
70706;DHT22;59320;52.316;10.870;2023-09-07T12:50:57;24.90;99.80
70706;DHT22;59320;52.316;10.870;2023-09-07T12:53:24;24.80;99.70
70706;DHT22;59320;52.316;10.870;2023-09-07T12:55:52;24.90;99.70
70706;DHT22;59320;52.316;10.870;2023-09-07T12:58:19;24.90;99.70
70706;DHT22;59320;52.316;10.870;2023-09-07T13:00:47;24.90;99.70
70706;DHT22;59320;52.316;10.870;2023-09-07T13:03:16;24.90;99.80
70706;DHT22;59320;52.316;10.870;2023-09-07T13:05:44;24.90;99.90
70706;DHT22;59320;52.316;10.870;2023-09-07T13:08:11;24.90;99.90
70706;DHT22;59320;52.316;10.870;2023-09-07T13:10:38;24.90;99.90
70706;DHT22;59320;52.316;10.870;2023-09-07T13:13:06;25.00;99.90
70706;DHT22;59320;52.316;10.870;2023-09-07T13:15:33;25.00;99.90
70706;DHT22;59320;52.316;10.870;2023-09-07T13:18:02;24.90;99.90
70706;DHT22;59320;52.316;10.870;2023-09-07T13:20:29;25.00;99.90
70706;DHT22;59320;52.316;10.870;2023-09-07T13:22:56;25.00;99.90
70706;DHT22;59320;52.316;10.870;2023-09-07T13:25:24;24.90;99.90
70706;DHT22;59320;52.316;10.870;2023-09-07T13:27:52;24.90;99.90
70706;DHT22;59320;52.316;10.870;2023-09-07T13:30:19;24.90;99.90
70706;DHT22;59320;52.316;10.870;2023-09-07T13:32:46;24.80;99.90
70706;DHT22;59320;52.316;10.870;2023-09-07T13:35:15;24.70;99.90
70706;DHT22;59320;52.316;10.870;2023-09-07T13:37:42;24.70;99.90
70706;DHT22;59320;52.316;10.870;2023-09-07T13:40:09;24.60;99.90
70706;DHT22;59320;52.316;10.870;2023-09-07T13:42:37;24.60;99.90
70706;DHT22;59320;52.316;10.870;2023-09-07T13:45:07;24.60;99.90
70706;DHT22;59320;52.316;10.870;2023-09-07T13:47:34;24.60;99.90
70706;DHT22;59320;52.316;10.870;2023-09-07T13:50:01;24.50;99.90
70706;DHT22;59320;52.316;10.870;2023-09-07T13:52:30;24.60;99.90
70706;DHT22;59320;52.316;10.870;2023-09-07T13:54:57;24.50;99.90
70706;DHT22;59320;52.316;10.870;2023-09-07T13:57:24;24.50;99.90
70706;DHT22;59320;52.316;10.870;2023-09-07T13:59:51;24.50;99.90
70706;DHT22;59320;52.316;10.870;2023-09-07T14:02:18;24.50;99.90
70706;DHT22;59320;52.316;10.870;2023-09-07T14:04:45;24.50;99.90
70706;DHT22;59320;52.316;10.870;2023-09-07T14:07:12;24.40;99.90
70706;DHT22;59320;52.316;10.870;2023-09-07T14:09:41;24.40;99.90
70706;DHT22;59320;52.316;10.870;2023-09-07T14:12:09;24.40;99.90
70706;DHT22;59320;52.316;10.870;2023-09-07T14:14:36;24.40;99.90
70706;DHT22;59320;52.316;10.870;2023-09-07T14:17:03;24.40;99.90
70706;DHT22;59320;52.316;10.870;2023-09-07T14:19:31;24.40;99.90
70706;DHT22;59320;52.316;10.870;2023-09-07T14:21:59;24.40;99.90
70706;DHT22;59320;52.316;10.870;2023-09-07T14:24:26;24.40;99.90
70706;DHT22;59320;52.316;10.870;2023-09-07T14:26:55;24.30;99.90
70706;DHT22;59320;52.316;10.870;2023-09-07T14:29:22;24.40;99.90
70706;DHT22;59320;52.316;10.870;2023-09-07T14:31:49;24.30;99.90
70706;DHT22;59320;52.316;10.870;2023-09-07T14:34:16;24.30;99.90
70706;DHT22;59320;52.316;10.870;2023-09-07T14:36:43;24.30;99.90
70706;DHT22;59320;52.316;10.870;2023-09-07T14:39:10;24.40;99.90
70706;DHT22;59320;52.316;10.870;2023-09-07T14:41:38;24.40;99.90
70706;DHT22;59320;52.316;10.870;2023-09-07T14:44:07;24.50;99.70
70706;DHT22;59320;52.316;10.870;2023-09-07T14:46:36;24.50;99.40
70706;DHT22;59320;52.316;10.870;2023-09-07T14:49:03;24.60;99.20
70706;DHT22;59320;52.316;10.870;2023-09-07T14:51:30;24.60;98.90
70706;DHT22;59320;52.316;10.870;2023-09-07T14:53:57;24.70;98.70
70706;DHT22;59320;52.316;10.870;2023-09-07T14:56:25;24.70;98.50
70706;DHT22;59320;52.316;10.870;2023-09-07T14:58:54;24.80;98.50
70706;DHT22;59320;52.316;10.870;2023-09-07T15:01:23;24.80;98.30
70706;DHT22;59320;52.316;10.870;2023-09-07T15:03:50;24.80;98.20
70706;DHT22;59320;52.316;10.870;2023-09-07T15:06:17;24.80;98.00
70706;DHT22;59320;52.316;10.870;2023-09-07T15:08:44;24.90;97.80
70706;DHT22;59320;52.316;10.870;2023-09-07T15:11:11;24.90;97.80
70706;DHT22;59320;52.316;10.870;2023-09-07T15:13:39;24.90;97.60
70706;DHT22;59320;52.316;10.870;2023-09-07T15:16:06;25.00;97.30
70706;DHT22;59320;52.316;10.870;2023-09-07T15:18:35;25.00;97.20
70706;DHT22;59320;52.316;10.870;2023-09-07T15:21:03;25.20;97.00
70706;DHT22;59320;52.316;10.870;2023-09-07T15:23:30;25.20;96.70
70706;DHT22;59320;52.316;10.870;2023-09-07T15:25:57;25.20;96.80
70706;DHT22;59320;52.316;10.870;2023-09-07T15:28:24;25.20;97.00
70706;DHT22;59320;52.316;10.870;2023-09-07T15:30:51;25.20;97.10
70706;DHT22;59320;52.316;10.870;2023-09-07T15:33:20;25.20;97.10
70706;DHT22;59320;52.316;10.870;2023-09-07T15:35:48;25.10;97.10
70706;DHT22;59320;52.316;10.870;2023-09-07T15:38:15;25.10;97.10
70706;DHT22;59320;52.316;10.870;2023-09-07T15:40:42;25.10;96.90